Time;durP1;ratioP1;P1;durP2;ratioP2;P2;SDS_P1;SDS_P2;PMS_P1;PMS_P2;Temp;Humidity;BMP_temperature;BMP_pressure;BME280_temperature;BME280_humidity;BME280_pressure;Samples;Min_cycle;Max_cycle;Signal;HPM_P1;HPM_P2
2023/12/12 00:01:08;;;;;;;13.85;3.88;;;;;;;9.00;100.00;100732.19;5252190;28;20287;-76
2023/12/12 00:03:39;;;;;;;13.13;4.43;;;;;;;8.95;100.00;100729.13;5252042;28;20021;-76
2023/12/12 00:06:11;;;;;;;12.02;3.63;;;;;;;8.94;100.00;100744.00;5250063;28;20438;-76
2023/12/12 00:08:44;;;;;;;10.60;3.67;;;;;;;8.97;100.00;100737.66;5250419;28;20405;-76
2023/12/12 00:11:16;;;;;;;8.80;3.45;;;;;;;9.02;100.00;100738.97;5252555;28;20057;-76
2023/12/12 00:13:47;;;;;;;12.43;4.35;;;;;;;9.00;100.00;100740.03;5250029;28;20032;-76
2023/12/12 00:16:19;;;;;;;10.50;4.22;;;;;;;8.98;100.00;100728.91;5253067;28;20029;-76
2023/12/12 00:18:51;;;;;;;8.43;3.47;;;;;;;8.97;100.00;100732.44;5255802;28;20039;-76
2023/12/12 00:21:23;;;;;;;11.20;3.63;;;;;;;8.94;100.00;100733.53;5255501;28;20795;-76
2023/12/12 00:23:55;;;;;;;14.80;4.10;;;;;;;8.94;100.00;100725.69;5249473;28;20029;-76
2023/12/12 00:26:28;;;;;;;8.70;3.90;;;;;;;8.95;100.00;100734.38;5256070;28;20025;-76
2023/12/12 00:29:00;;;;;;;10.00;4.00;;;;;;;8.89;100.00;100725.22;5254336;28;20333;-76
2023/12/12 00:31:32;;;;;;;12.25;3.90;;;;;;;8.85;100.00;100720.38;5254434;28;20033;-77
2023/12/12 00:34:04;;;;;;;12.93;4.25;;;;;;;8.80;100.00;100731.19;5246477;28;20029;-76
2023/12/12 00:36:36;;;;;;;10.60;4.00;;;;;;;8.78;100.00;100738.28;5245267;28;20037;-76
2023/12/12 00:39:07;;;;;;;12.93;4.50;;;;;;;8.71;100.00;100726.66;5248986;28;20433;-76
2023/12/12 00:41:39;;;;;;;16.80;3.80;;;;;;;8.72;100.00;100734.41;5240891;28;20024;-76
2023/12/12 00:44:12;;;;;;;13.15;4.50;;;;;;;8.73;100.00;100724.78;5248594;28;20045;-76
2023/12/12 00:46:44;;;;;;;15.50;4.27;;;;;;;8.76;100.00;100725.38;5246121;28;20028;-76
2023/12/12 00:49:15;;;;;;;16.65;5.05;;;;;;;8.75;100.00;100722.84;5245651;28;20036;-76
2023/12/12 00:51:47;;;;;;;14.13;4.00;;;;;;;8.71;100.00;100726.66;5248169;28;20028;-75
2023/12/12 00:54:19;;;;;;;16.45;5.03;;;;;;;8.62;100.00;100717.78;5239801;28;20557;-75
2023/12/12 00:56:51;;;;;;;14.40;4.45;;;;;;;8.67;100.00;100726.06;5243039;28;20037;-76
2023/12/12 00:59:23;;;;;;;16.98;4.30;;;;;;;8.67;100.00;100725.25;5246649;28;20037;-76
2023/12/12 01:01:55;;;;;;;17.02;3.90;;;;;;;8.65;100.00;100719.34;5240680;28;20350;-75
2023/12/12 01:04:27;;;;;;;14.85;4.65;;;;;;;8.65;100.00;100719.34;5248253;28;20532;-75
2023/12/12 01:06:59;;;;;;;14.10;4.40;;;;;;;8.65;100.00;100716.72;5245158;28;20517;-75
2023/12/12 01:09:30;;;;;;;13.43;4.28;;;;;;;8.57;100.00;100701.66;5247014;28;20100;-75
2023/12/12 01:12:03;;;;;;;14.93;4.80;;;;;;;8.64;100.00;100715.91;5245834;28;20040;-75
2023/12/12 01:14:35;;;;;;;16.45;4.70;;;;;;;8.60;100.00;100713.63;5251386;28;20029;-75
2023/12/12 01:17:06;;;;;;;15.55;3.97;;;;;;;8.58;100.00;100705.91;5245444;28;20384;-75
2023/12/12 01:19:38;;;;;;;18.58;4.28;;;;;;;8.52;100.00;100712.47;5242177;28;20021;-75
2023/12/12 01:22:10;;;;;;;17.95;4.90;;;;;;;8.46;100.00;100707.72;5244435;28;20289;-75
2023/12/12 01:24:42;;;;;;;11.85;4.13;;;;;;;8.46;100.00;100705.09;5243598;28;20039;-75
2023/12/12 01:27:14;;;;;;;15.32;3.90;;;;;;;8.43;100.00;100700.13;5246922;28;20033;-75
2023/12/12 01:29:46;;;;;;;13.98;3.80;;;;;;;8.41;100.00;100704.66;5241054;28;20033;-75
2023/12/12 01:32:18;;;;;;;13.23;4.70;;;;;;;8.38;100.00;100699.66;5243826;28;20410;-76
2023/12/12 01:34:50;;;;;;;14.40;4.00;;;;;;;8.36;100.00;100704.13;5254094;28;20040;-75
2023/12/12 01:37:21;;;;;;;16.85;4.35;;;;;;;8.30;100.00;100688.94;5254595;28;20045;-75
2023/12/12 01:39:53;;;;;;;17.85;4.65;;;;;;;8.23;100.00;100688.59;5256572;28;20025;-75
2023/12/12 01:42:25;;;;;;;16.60;4.15;;;;;;;8.15;100.00;100677.91;5255669;28;20036;-75
2023/12/12 01:44:57;;;;;;;12.02;3.97;;;;;;;8.20;100.00;100693.22;5252006;28;20291;-76
2023/12/12 01:47:29;;;;;;;13.77;3.72;;;;;;;8.18;100.00;100690.75;5254259;28;20471;-76
2023/12/12 01:50:02;;;;;;;15.63;5.15;;;;;;;8.22;100.00;100694.78;5254443;28;20033;-75
2023/12/12 01:52:34;;;;;;;17.20;4.57;;;;;;;8.17;100.00;100689.06;5256874;28;20041;-75
2023/12/12 01:55:06;;;;;;;14.05;4.25;;;;;;;8.22;100.00;100694.78;5255564;28;20016;-75
2023/12/12 01:57:38;;;;;;;18.58;4.50;;;;;;;8.17;100.00;100694.28;5253725;28;20041;-75
2023/12/12 02:00:11;;;;;;;15.90;4.47;;;;;;;8.18;100.00;100695.97;5253036;28;20116;-76
2023/12/12 02:02:43;;;;;;;18.75;4.63;;;;;;;8.16;100.00;100687.41;5253467;28;20048;-75
2023/12/12 02:05:15;;;;;;;16.13;5.15;;;;;;;8.14;100.00;100691.06;5252356;28;20025;-75
2023/12/12 02:07:49;;;;;;;17.13;4.40;;;;;;;8.13;100.00;100690.25;5253413;28;20028;-75
2023/12/12 02:10:21;;;;;;;12.30;3.95;;;;;;;8.05;100.00;100698.66;5255345;28;20047;-75
2023/12/12 02:12:53;;;;;;;16.85;4.43;;;;;;;8.02;100.00;100696.28;5255952;28;20032;-75
2023/12/12 02:15:25;;;;;;;16.92;4.60;;;;;;;7.93;100.00;100683.94;5254088;28;20029;-75
2023/12/12 02:17:57;;;;;;;19.92;5.18;;;;;;;7.94;100.00;100685.59;5254000;28;20032;-75
2023/12/12 02:20:29;;;;;;;10.68;3.70;;;;;;;7.98;100.00;100688.81;5253996;28;20086;-76
2023/12/12 02:23:01;;;;;;;17.05;4.80;;;;;;;7.94;100.00;100680.38;5252774;28;20466;-76
2023/12/12 02:25:33;;;;;;;14.45;4.65;;;;;;;7.90;100.00;100670.31;5255504;28;20383;-75
2023/12/12 02:28:06;;;;;;;16.60;4.72;;;;;;;7.88;100.00;100672.19;5252323;28;20115;-75
2023/12/12 02:30:38;;;;;;;19.48;5.00;;;;;;;7.85;100.00;100678.50;5254387;28;20041;-75
2023/12/12 02:33:10;;;;;;;20.45;4.72;;;;;;;7.85;100.00;100681.09;5254971;28;20051;-76
2023/12/12 02:35:42;;;;;;;16.40;5.13;;;;;;;7.75;100.00;100669.69;5254660;28;20041;-75
2023/12/12 02:38:14;;;;;;;20.17;5.25;;;;;;;7.79;100.00;100668.50;5252813;28;20032;-75
2023/12/12 02:40:46;;;;;;;20.67;5.32;;;;;;;7.76;100.00;100674.78;5254827;28;20390;-75
2023/12/12 02:43:18;;;;;;;21.25;4.82;;;;;;;7.75;100.00;100664.47;5250935;28;20434;-76
2023/12/12 02:45:50;;;;;;;21.40;5.68;;;;;;;7.68;100.00;100661.50;5252697;28;20024;-75
2023/12/12 02:48:22;;;;;;;17.90;4.45;;;;;;;7.70;100.00;100672.66;5253240;28;20035;-75
2023/12/12 02:50:54;;;;;;;17.90;4.72;;;;;;;7.69;100.00;100664.94;5252723;28;20211;-75
2023/12/12 02:53:26;;;;;;;22.13;5.10;;;;;;;7.69;100.00;100671.00;5254266;28;20039;-76
2023/12/12 02:55:57;;;;;;;15.40;5.75;;;;;;;7.64;100.00;100673.09;5254022;28;20029;-75
2023/12/12 02:58:29;;;;;;;15.98;4.60;;;;;;;7.61;100.00;100677.72;5252941;28;20076;-75
2023/12/12 03:01:01;;;;;;;20.17;4.82;;;;;;;7.60;100.00;100666.47;5254851;28;20025;-75
2023/12/12 03:03:33;;;;;;;26.40;5.30;;;;;;;7.58;100.00;100668.38;5253508;28;20033;-76
2023/12/12 03:06:07;;;;;;;17.02;5.03;;;;;;;7.63;100.00;100665.41;5253116;28;20802;-76
2023/12/12 03:08:39;;;;;;;21.83;4.47;;;;;;;7.54;100.00;100666.94;5253877;28;20031;-76
2023/12/12 03:11:11;;;;;;;16.65;5.63;;;;;;;7.52;100.00;100664.44;5253354;28;20032;-75
2023/12/12 03:13:42;;;;;;;16.67;4.68;;;;;;;7.52;100.00;100661.00;5252779;28;20029;-75
2023/12/12 03:16:14;;;;;;;21.27;5.75;;;;;;;7.48;100.00;100651.75;5252600;28;20050;-75
2023/12/12 03:18:46;;;;;;;20.67;4.60;;;;;;;7.47;100.00;100650.94;5251707;28;20555;-75
2023/12/12 03:21:18;;;;;;;23.02;5.15;;;;;;;7.46;100.00;100648.41;5250917;28;20028;-75
2023/12/12 03:23:50;;;;;;;17.30;4.57;;;;;;;7.44;100.00;100645.94;5254490;28;20048;-76
2023/12/12 03:26:22;;;;;;;18.63;4.85;;;;;;;7.41;100.00;100646.16;5253198;28;20494;-76
2023/12/12 03:28:54;;;;;;;25.05;5.95;;;;;;;7.41;100.00;100646.16;5247649;28;20417;-76
2023/12/12 03:31:26;;;;;;;24.20;4.57;;;;;;;7.41;100.00;100645.31;5244540;28;20402;-76
2023/12/12 03:33:58;;;;;;;20.25;4.78;;;;;;;7.42;100.00;100642.59;5240031;28;20045;-76
2023/12/12 03:36:30;;;;;;;17.67;4.10;;;;;;;7.36;100.00;100637.03;5239667;28;20037;-76
2023/12/12 03:39:02;;;;;;;23.00;5.57;;;;;;;7.36;100.00;100637.88;5240015;28;20033;-76
2023/12/12 03:41:34;;;;;;;20.87;4.77;;;;;;;7.30;100.00;100628.72;5244976;28;20036;-76
2023/12/12 03:44:06;;;;;;;22.45;5.15;;;;;;;7.35;100.00;100641.41;5243852;28;20471;-76
2023/12/12 03:46:37;;;;;;;21.25;4.53;;;;;;;7.37;100.00;100623.06;5240392;28;20039;-76
2023/12/12 03:49:09;;;;;;;23.08;5.53;;;;;;;7.40;100.00;100621.03;5242918;28;20020;-76
2023/12/12 03:51:42;;;;;;;23.65;5.40;;;;;;;7.33;100.00;100612.03;5241155;28;20029;-76
2023/12/12 03:54:14;;;;;;;19.52;4.60;;;;;;;7.39;100.00;100605.53;5241121;28;20036;-76
2023/12/12 03:56:46;;;;;;;20.95;5.60;;;;;;;7.42;100.00;100610.50;5244620;28;20040;-76
2023/12/12 03:59:18;;;;;;;20.98;4.57;;;;;;;7.47;100.00;100603.19;5250927;28;20021;-76
2023/12/12 04:01:50;;;;;;;20.75;5.35;;;;;;;7.49;100.00;100602.09;5242917;28;20475;-76
2023/12/12 04:04:21;;;;;;;24.88;5.57;;;;;;;7.51;100.00;100602.00;5243424;28;20375;-76
2023/12/12 04:06:53;;;;;;;24.55;5.13;;;;;;;7.52;100.00;100596.66;5242284;28;20048;-76
2023/12/12 04:09:25;;;;;;;22.77;5.72;;;;;;;7.55;100.00;100595.59;5239840;28;20071;-76
2023/12/12 04:11:57;;;;;;;25.75;5.82;;;;;;;7.57;100.00;100586.69;5250856;28;20029;-76
2023/12/12 04:14:29;;;;;;;19.52;5.13;;;;;;;7.61;100.00;100589.91;5250501;28;20037;-76
2023/12/12 04:17:03;;;;;;;19.42;5.30;;;;;;;7.64;100.00;100594.06;5245694;28;20025;-76
2023/12/12 04:19:35;;;;;;;26.45;6.20;;;;;;;7.60;100.00;100577.81;5242361;28;20032;-76
2023/12/12 04:22:06;;;;;;;22.75;6.05;;;;;;;7.66;100.00;100577.38;5240555;28;20029;-76
2023/12/12 04:24:38;;;;;;;20.70;5.70;;;;;;;7.63;100.00;100577.59;5241554;28;20021;-76
2023/12/12 04:27:10;;;;;;;27.40;6.13;;;;;;;7.69;100.00;100582.34;5241009;28;20029;-76
2023/12/12 04:29:42;;;;;;;24.98;6.20;;;;;;;7.70;100.00;100578.78;5241687;28;20037;-76
2023/12/12 04:32:15;;;;;;;23.23;5.65;;;;;;;7.72;100.00;100578.66;5249554;28;20045;-76
2023/12/12 04:34:46;;;;;;;22.10;6.27;;;;;;;7.75;100.00;100576.66;5245535;28;20514;-76
2023/12/12 04:37:18;;;;;;;16.88;6.07;;;;;;;7.74;100.00;100582.81;5250353;28;20296;-76
2023/12/12 04:39:50;;;;;;;22.17;5.50;;;;;;;7.76;100.00;100580.91;5246336;28;20036;-76
2023/12/12 04:42:25;;;;;;;26.80;6.40;;;;;;;7.76;100.00;100572.25;5242879;28;20110;-76
2023/12/12 04:44:57;;;;;;;23.17;6.13;;;;;;;7.82;100.00;100576.19;5240497;28;20037;-76
2023/12/12 04:47:29;;;;;;;25.20;6.50;;;;;;;7.83;100.00;100572.63;5239514;28;20401;-76
2023/12/12 04:50:01;;;;;;;24.77;6.32;;;;;;;7.85;100.00;100573.34;5245174;28;20044;-76
2023/12/12 04:52:32;;;;;;;21.33;6.47;;;;;;;8.18;100.00;100567.22;5243863;28;20037;-76
2023/12/12 04:55:05;;;;;;;23.15;7.15;;;;;;;8.35;100.00;100561.50;5245411;28;20056;-76
2023/12/12 04:57:38;;;;;;;22.83;5.33;;;;;;;8.44;100.00;100555.56;5239186;28;20052;-76
2023/12/12 05:00:13;;;;;;;24.48;5.57;;;;;;;8.48;100.00;100567.44;5239728;28;20049;-76
2023/12/12 05:02:45;;;;;;;19.02;5.72;;;;;;;8.46;100.00;100560.69;5242070;28;20029;-76
2023/12/12 05:05:18;;;;;;;22.07;6.17;;;;;;;8.51;100.00;100554.13;5228936;28;20041;-76
2023/12/12 05:07:51;;;;;;;20.95;6.57;;;;;;;8.52;100.00;100552.34;5241014;28;20029;-76
2023/12/12 05:10:23;;;;;;;27.52;6.10;;;;;;;8.55;100.00;100548.66;5239123;28;21140;-76
2023/12/12 05:12:55;;;;;;;21.55;5.75;;;;;;;8.53;100.00;100556.63;5247882;28;20040;-76
2023/12/12 05:15:28;;;;;;;22.50;6.45;;;;;;;8.56;100.00;100548.56;5239089;28;20039;-76
2023/12/12 05:18:00;;;;;;;19.83;6.13;;;;;;;8.58;100.00;100545.81;5240993;28;20053;-76
2023/12/12 05:20:32;;;;;;;21.42;5.38;;;;;;;8.60;100.00;100541.28;5244563;28;20033;-76
2023/12/12 05:23:04;;;;;;;23.70;5.88;;;;;;;8.64;100.00;100540.94;5239477;28;20537;-76
2023/12/12 05:25:36;;;;;;;20.13;5.78;;;;;;;8.71;100.00;100533.41;5246016;28;20037;-76
2023/12/12 05:28:08;;;;;;;21.58;5.40;;;;;;;8.71;100.00;100531.66;5238094;28;20033;-76
2023/12/12 05:30:40;;;;;;;20.70;5.90;;;;;;;8.71;100.00;100528.19;5242462;28;20087;-76
2023/12/12 05:33:12;;;;;;;20.73;6.50;;;;;;;8.73;100.00;100532.31;5245631;28;20423;-76
2023/12/12 05:35:44;;;;;;;23.25;6.20;;;;;;;8.81;100.00;100530.88;5239365;28;20037;-76
2023/12/12 05:38:16;;;;;;;18.60;5.50;;;;;;;8.78;100.00;100530.16;5241756;28;20036;-76
2023/12/12 05:40:48;;;;;;;23.13;5.97;;;;;;;8.78;100.00;100530.16;5247270;28;20055;-76
2023/12/12 05:43:20;;;;;;;26.58;5.57;;;;;;;8.78;100.00;100524.94;5246629;28;20033;-76
2023/12/12 05:45:54;;;;;;;15.60;5.80;;;;;;;8.76;100.00;100520.81;5218369;28;20049;-76
2023/12/12 05:48:25;;;;;;;;;;;;;;;9.47;100.00;100524.41;5249133;28;20033;-76
2023/12/12 05:50:57;;;;;;;17.63;5.03;;;;;;;8.91;100.00;100527.38;5249961;28;19920;-76
2023/12/12 05:53:29;;;;;;;23.20;6.55;;;;;;;8.87;100.00;100533.81;5242818;28;20036;-76
2023/12/12 05:56:01;;;;;;;24.50;6.50;;;;;;;8.90;100.00;100530.97;5240906;28;20032;-76
2023/12/12 05:58:33;;;;;;;21.50;5.80;;;;;;;8.90;100.00;100536.19;5244949;28;20463;-76
2023/12/12 06:01:05;;;;;;;23.35;6.47;;;;;;;8.90;100.00;100527.50;5244119;28;20394;-76
2023/12/12 06:03:37;;;;;;;22.33;5.90;;;;;;;8.93;100.00;100537.69;5239588;28;20044;-76
2023/12/12 06:06:09;;;;;;;21.38;5.75;;;;;;;8.92;100.00;100526.41;5243381;28;20037;-76
2023/12/12 06:08:41;;;;;;;27.27;6.43;;;;;;;8.99;100.00;100519.72;5245862;28;20029;-76
2023/12/12 06:11:13;;;;;;;21.50;5.80;;;;;;;8.97;100.00;100516.41;5239551;28;20478;-76
2023/12/12 06:13:45;;;;;;;22.00;6.35;;;;;;;9.00;100.00;100520.56;5241307;28;20052;-76
2023/12/12 06:16:17;;;;;;;27.48;5.50;;;;;;;9.05;100.00;100521.00;5240653;28;20471;-76
2023/12/12 06:18:51;;;;;;;21.85;6.28;;;;;;;9.03;100.00;100512.47;5237580;28;20039;-76
2023/12/12 06:21:23;;;;;;;18.90;6.35;;;;;;;9.03;100.00;100517.69;5247517;28;20021;-76
2023/12/12 06:23:55;;;;;;;23.38;5.95;;;;;;;9.07;100.00;100510.44;5243621;28;20033;-76
2023/12/12 06:26:28;;;;;;;20.13;5.70;;;;;;;9.05;100.00;100502.69;5240007;28;20031;-76
2023/12/12 06:28:59;;;;;;;18.77;5.67;;;;;;;9.12;100.00;100498.63;5239094;28;20033;-76
2023/12/12 06:31:31;;;;;;;18.33;6.18;;;;;;;9.10;100.00;100497.94;5242872;28;20025;-76
2023/12/12 06:34:03;;;;;;;16.38;4.70;;;;;;;9.10;100.00;100492.72;5254008;28;20557;-76
2023/12/12 06:36:35;;;;;;;23.13;5.95;;;;;;;9.13;100.00;100488.97;5249758;28;20397;-76
2023/12/12 06:39:10;;;;;;;18.85;5.03;;;;;;;9.14;100.00;100482.81;5252082;28;20303;-76
2023/12/12 06:41:42;;;;;;;23.83;6.55;;;;;;;9.14;100.00;100481.03;5252475;28;20025;-76
2023/12/12 06:44:14;;;;;;;21.90;5.88;;;;;;;9.14;100.00;100478.41;5254065;28;20094;-76
2023/12/12 06:46:46;;;;;;;21.08;5.47;;;;;;;9.12;100.00;100480.31;5252043;28;20406;-76
2023/12/12 06:49:18;;;;;;;23.08;6.07;;;;;;;9.16;100.00;100475.66;5251901;28;20138;-76
2023/12/12 06:51:49;;;;;;;24.65;5.93;;;;;;;9.14;100.00;100469.75;5252982;28;20112;-76
2023/12/12 06:54:21;;;;;;;19.67;5.20;;;;;;;9.14;100.00;100456.69;5250927;28;20037;-76
2023/12/12 06:56:53;;;;;;;22.58;6.30;;;;;;;9.11;100.00;100457.75;5251018;28;20108;-76
2023/12/12 06:59:25;;;;;;;28.23;5.72;;;;;;;9.14;100.00;100454.06;5251086;28;20040;-76
2023/12/12 07:01:57;;;;;;;19.98;6.32;;;;;;;9.09;100.00;100453.63;5249631;28;21424;-76
2023/12/12 07:04:29;;;;;;;19.02;5.80;;;;;;;9.05;100.00;100458.28;5253335;28;20139;-76
2023/12/12 07:07:01;;;;;;;20.08;5.63;;;;;;;9.10;100.00;100450.06;5254178;28;20175;-76
2023/12/12 07:09:33;;;;;;;21.65;6.43;;;;;;;9.08;100.00;100449.34;5253446;28;20066;-76
2023/12/12 07:12:06;;;;;;;23.27;5.65;;;;;;;9.09;100.00;100446.63;5251551;28;20051;-76
2023/12/12 07:14:37;;;;;;;23.88;5.22;;;;;;;9.12;100.00;100450.75;5253440;28;20390;-76
2023/12/12 07:17:09;;;;;;;26.17;5.63;;;;;;;9.14;100.00;100443.63;5253391;28;20035;-76
2023/12/12 07:19:41;;;;;;;21.48;5.53;;;;;;;9.14;100.00;100454.91;5250823;28;20151;-76
2023/12/12 07:22:13;;;;;;;18.45;5.30;;;;;;;9.14;100.00;100454.91;5250419;28;20039;-75
2023/12/12 07:24:45;;;;;;;18.00;5.05;;;;;;;9.17;100.00;100457.25;5248378;28;20036;-76
2023/12/12 07:27:17;;;;;;;21.38;5.90;;;;;;;9.19;100.00;100452.72;5250605;28;20684;-76
2023/12/12 07:29:49;;;;;;;21.45;5.18;;;;;;;9.24;100.00;100455.78;5246088;28;20346;-75
2023/12/12 07:32:21;;;;;;;17.83;4.97;;;;;;;9.26;100.00;100448.63;5237188;28;20046;-75
2023/12/12 07:34:53;;;;;;;17.27;4.85;;;;;;;9.29;100.00;100447.53;5239189;28;20083;-76
2023/12/12 07:37:25;;;;;;;17.83;5.40;;;;;;;9.36;100.00;100451.28;5243734;28;20041;-76
2023/12/12 07:39:57;;;;;;;21.33;4.93;;;;;;;9.34;100.00;100447.97;5237526;28;20291;-76
2023/12/12 07:42:29;;;;;;;18.80;5.07;;;;;;;9.37;100.00;100442.47;5224421;28;20040;-76
2023/12/12 07:45:02;;;;;;;18.95;5.00;;;;;;;9.38;100.00;100427.59;5242550;28;20045;-76
2023/12/12 07:47:34;;;;;;;23.25;5.75;;;;;;;9.41;100.00;100429.97;5242182;28;20025;-76
2023/12/12 07:50:08;;;;;;;22.35;4.95;;;;;;;9.41;100.00;100422.94;5239518;28;20489;-76
2023/12/12 07:52:40;;;;;;;19.27;5.50;;;;;;;9.40;100.00;100418.69;5247551;28;20033;-76
2023/12/12 07:55:12;;;;;;;22.13;5.85;;;;;;;9.40;100.00;100421.31;5241860;28;20043;-76
2023/12/12 07:57:43;;;;;;;17.38;4.93;;;;;;;9.39;100.00;100409.16;5241272;28;20037;-76
2023/12/12 08:00:16;;;;;;;18.27;5.53;;;;;;;9.40;100.00;100412.63;5238223;28;20034;-75
2023/12/12 08:02:47;;;;;;;17.45;4.80;;;;;;;9.39;100.00;100411.78;5231914;28;20040;-75
2023/12/12 08:05:20;;;;;;;25.67;5.47;;;;;;;9.41;100.00;100404.63;5233925;28;20116;-76
2023/12/12 08:07:52;;;;;;;23.42;4.78;;;;;;;9.44;100.00;100401.75;5238386;28;20040;-75
2023/12/12 08:10:24;;;;;;;19.38;5.57;;;;;;;9.46;100.00;100401.63;5224132;28;20475;-76
2023/12/12 08:12:57;;;;;;;17.52;5.35;;;;;;;9.46;100.00;100397.22;5241115;28;20033;-76
2023/12/12 08:15:29;;;;;;;22.05;4.93;;;;;;;9.45;100.00;100385.09;5239916;28;20037;-76
2023/12/12 08:18:01;;;;;;;22.35;5.00;;;;;;;9.52;100.00;100379.34;5239118;28;20509;-76
2023/12/12 08:20:33;;;;;;;17.63;4.80;;;;;;;9.53;100.00;100381.00;5237011;28;20044;-76
2023/12/12 08:23:06;;;;;;;18.00;4.40;;;;;;;9.58;100.00;100377.00;5236067;28;20045;-76
2023/12/12 08:25:38;;;;;;;21.70;4.43;;;;;;;9.65;100.00;100377.31;5240645;28;20390;-76
2023/12/12 08:28:10;;;;;;;18.70;4.65;;;;;;;9.65;100.00;100375.50;5233797;28;20033;-76
2023/12/12 08:30:43;;;;;;;18.65;4.85;;;;;;;9.70;100.00;100369.88;5233916;28;20052;-76
2023/12/12 08:33:14;;;;;;;19.17;4.97;;;;;;;9.79;100.00;100376.09;5245436;28;20049;-76
2023/12/12 08:35:46;;;;;;;19.02;4.63;;;;;;;9.74;100.00;100374.72;5244478;28;20503;-76
2023/12/12 08:38:19;;;;;;;20.70;4.78;;;;;;;9.80;100.00;100382.97;5255096;28;20389;-76
2023/12/12 08:40:50;;;;;;;19.02;5.32;;;;;;;9.80;100.00;100372.50;5255156;28;20056;-76
2023/12/12 08:43:23;;;;;;;16.05;4.47;;;;;;;9.82;100.00;100371.41;5250317;28;20043;-76
2023/12/12 08:45:55;;;;;;;19.50;5.63;;;;;;;9.92;100.00;100364.38;5252021;28;20029;-76
2023/12/12 08:48:27;;;;;;;18.55;4.18;;;;;;;9.94;100.00;100370.31;5253565;28;20078;-76
2023/12/12 08:50:59;;;;;;;17.48;4.95;;;;;;;9.95;100.00;100373.75;5248852;28;20043;-76
2023/12/12 08:53:31;;;;;;;20.13;4.95;;;;;;;9.97;100.00;100367.41;5254536;28;20024;-76
2023/12/12 08:56:04;;;;;;;19.80;4.22;;;;;;;9.98;100.00;100363.84;5255307;28;20487;-76
2023/12/12 08:58:36;;;;;;;18.08;4.93;;;;;;;10.04;100.00;100354.63;5255042;28;20036;-76
2023/12/12 09:01:08;;;;;;;17.52;4.88;;;;;;;10.07;100.00;100350.88;5250797;28;20021;-76
2023/12/12 09:03:40;;;;;;;21.88;4.68;;;;;;;10.09;100.00;100347.16;5255800;28;20025;-76
2023/12/12 09:06:12;;;;;;;15.35;4.95;;;;;;;10.17;100.00;100341.22;5253867;28;20028;-76
2023/12/12 09:08:44;;;;;;;16.33;3.80;;;;;;;10.11;100.00;100328.69;5253054;28;20029;-76
2023/12/12 09:11:16;;;;;;;13.48;4.32;;;;;;;10.20;100.00;100331.31;5254302;28;20040;-76
2023/12/12 09:13:47;;;;;;;18.02;4.45;;;;;;;10.23;100.00;100322.34;5254505;28;20029;-76
2023/12/12 09:16:20;;;;;;;14.52;4.50;;;;;;;10.30;100.00;100318.22;5251583;28;20071;-76
2023/12/12 09:18:52;;;;;;;16.33;4.45;;;;;;;10.35;100.00;100317.81;5252021;28;20481;-76
2023/12/12 09:21:24;;;;;;;16.58;4.25;;;;;;;10.37;100.00;100318.47;5255199;28;20405;-76
2023/12/12 09:23:56;;;;;;;12.65;4.18;;;;;;;10.36;100.00;100315.03;5254605;28;20094;-76
2023/12/12 09:26:28;;;;;;;16.58;4.78;;;;;;;10.43;100.00;100313.50;5252488;28;20037;-76
2023/12/12 09:29:00;;;;;;;20.95;5.13;;;;;;;10.47;100.00;100312.25;5249964;28;20033;-76
2023/12/12 09:31:33;;;;;;;14.57;4.93;;;;;;;10.50;100.00;100305.91;5243812;28;20032;-76
2023/12/12 09:34:05;;;;;;;18.77;4.53;;;;;;;10.60;100.00;100311.94;5235444;28;20037;-76
2023/12/12 09:36:37;;;;;;;16.23;4.45;;;;;;;10.20;100.00;100289.44;5240335;28;20037;-76
2023/12/12 09:39:10;;;;;;;19.13;4.90;;;;;;;10.28;100.00;100303.63;5239098;28;20490;-76
2023/12/12 09:41:46;;;;;;;13.43;5.20;;;;;;;10.41;100.00;100299.72;5238663;28;20025;-76
2023/12/12 09:44:19;;;;;;;14.20;4.35;;;;;;;10.42;100.00;100304.00;5240358;28;20033;-76
2023/12/12 09:46:51;;;;;;;17.43;4.90;;;;;;;10.52;100.00;100308.38;5234013;28;20036;-76
2023/12/12 09:49:24;;;;;;;17.05;4.22;;;;;;;10.52;100.00;100292.66;5237439;28;20034;-76
2023/12/12 09:51:56;;;;;;;15.60;4.93;;;;;;;10.61;100.00;100283.97;5240635;28;20041;-76
2023/12/12 09:54:28;;;;;;;11.88;4.10;;;;;;;10.61;100.00;100284.78;5243327;28;20108;-76
2023/12/12 09:57:00;;;;;;;13.60;3.83;;;;;;;10.65;100.00;100277.47;5235750;28;20037;-76
2023/12/12 09:59:32;;;;;;;14.43;3.92;;;;;;;10.66;100.00;100274.69;5241543;28;20033;-76
2023/12/12 10:02:05;;;;;;;14.55;4.03;;;;;;;10.62;100.00;100262.84;5237347;28;20073;-76
2023/12/12 10:04:38;;;;;;;11.65;3.83;;;;;;;10.68;100.00;100253.56;5237608;28;20030;-76
2023/12/12 10:07:13;;;;;;;9.52;3.10;;;;;;;10.71;100.00;100240.19;5236376;28;20049;-76
2023/12/12 10:09:48;;;;;;;12.23;3.50;;;;;;;10.79;100.00;100247.31;5236070;28;20034;-76
2023/12/12 10:12:20;;;;;;;14.18;3.63;;;;;;;10.85;100.00;100239.72;5238582;28;20713;-76
2023/12/12 10:14:52;;;;;;;14.07;4.20;;;;;;;10.96;100.00;100229.03;5244924;28;20021;-76
2023/12/12 10:17:25;;;;;;;11.65;3.75;;;;;;;10.93;100.00;100224.06;5240861;28;20036;-76
2023/12/12 10:20:03;;;;;;;13.37;3.20;;;;;;;11.07;100.00;100227.16;5241385;28;20029;-76
2023/12/12 10:22:35;;;;;;;13.10;4.00;;;;;;;11.12;100.00;100232.78;5242751;28;20490;-76
2023/12/12 10:25:11;;;;;;;10.75;3.00;;;;;;;11.19;100.00;100218.09;5238744;28;20029;-76
2023/12/12 10:27:43;;;;;;;9.10;3.10;;;;;;;11.28;100.00;100219.00;5239932;28;20040;-76
2023/12/12 10:30:15;;;;;;;11.17;3.83;;;;;;;11.33;100.00;100216.78;5246705;28;20033;-76
2023/12/12 10:32:51;;;;;;;10.25;3.47;;;;;;;11.47;100.00;100218.03;5240954;28;20651;-76
2023/12/12 10:35:24;;;;;;;10.73;2.80;;;;;;;11.49;100.00;100218.72;5240589;28;20033;-76
2023/12/12 10:37:56;;;;;;;10.70;2.60;;;;;;;11.70;100.00;100219.19;5239938;28;20112;-76
2023/12/12 10:40:27;;;;;;;8.60;2.50;;;;;;;12.10;100.00;100212.59;5239515;28;20395;-76
2023/12/12 10:43:00;;;;;;;10.35;2.78;;;;;;;12.21;100.00;100209.72;5236668;28;20135;-77
2023/12/12 10:45:33;;;;;;;8.88;2.28;;;;;;;12.25;100.00;100207.59;5237084;28;20052;-77
2023/12/12 10:48:06;;;;;;;11.20;2.55;;;;;;;12.26;100.00;100209.25;5234747;28;20033;-76
2023/12/12 10:50:43;;;;;;;6.38;2.25;;;;;;;12.24;100.00;100200.72;5247397;28;20796;-76
2023/12/12 10:53:16;;;;;;;10.38;2.50;;;;;;;12.23;100.00;100188.53;5240514;28;20087;-76
2023/12/12 10:55:49;;;;;;;8.07;2.20;;;;;;;12.24;100.00;100188.41;5244700;28;20037;-76
2023/12/12 10:58:23;;;;;;;6.97;1.73;;;;;;;12.19;100.00;100182.78;5241805;28;20041;-76
2023/12/12 11:00:57;;;;;;;6.32;2.10;;;;;;;12.16;100.00;100185.75;5240401;28;20029;-76
2023/12/12 11:03:29;;;;;;;5.40;1.77;;;;;;;12.16;100.00;100162.91;5242467;28;20033;-76
2023/12/12 11:06:03;;;;;;;9.20;2.42;;;;;;;12.21;100.00;100169.50;5239247;28;20033;-77
2023/12/12 11:08:36;;;;;;;5.75;2.25;;;;;;;12.18;100.00;100168.00;5233274;28;20033;-76
2023/12/12 11:11:13;;;;;;;9.97;2.97;;;;;;;12.23;100.00;100155.22;5237369;28;20036;-77
2023/12/12 11:13:46;;;;;;;7.57;2.00;;;;;;;12.20;100.00;100152.09;5244838;28;20665;-76
2023/12/12 11:16:19;;;;;;;7.97;2.15;;;;;;;12.24;100.00;100148.19;5239546;28;20817;-76
2023/12/12 11:18:51;;;;;;;7.60;2.45;;;;;;;12.29;100.00;100127.50;5241903;28;20029;-76
2023/12/12 11:21:49;;;;;;;5.15;2.38;;;;;;;12.60;100.00;100144.34;5240640;28;20025;-76
2023/12/12 11:24:21;;;;;;;5.85;2.22;;;;;;;12.25;100.00;100123.56;5237873;28;20064;-76
2023/12/12 11:26:54;;;;;;;8.50;2.42;;;;;;;12.32;100.00;100135.91;5234409;28;20044;-76
2023/12/12 11:29:26;;;;;;;7.25;2.20;;;;;;;12.36;100.00;100131.16;5239150;28;20108;-76
2023/12/12 11:32:02;;;;;;;8.23;2.30;;;;;;;12.38;100.00;100127.38;5241738;28;20139;-76
2023/12/12 11:34:38;;;;;;;7.78;2.10;;;;;;;12.43;100.00;100128.72;5253243;28;20474;-76
2023/12/12 11:37:10;;;;;;;5.57;1.85;;;;;;;12.32;100.00;100117.50;5251945;28;20028;-77
2023/12/12 11:39:41;;;;;;;8.82;2.70;;;;;;;12.32;100.00;100109.63;5253776;28;20485;-76